Metar Aviation Weather Data     LHBP Budapest Liszt Ferenc International Airport
Temperature
6°C Temperature
1°C Dewpoint
71% Humidity



Wind
19 KM/H
12 MPH
5 M/S
10 KTS



190°
Déli
Current Conditions

Overcast Overcast
Pressure 1013.92 (hPa) - 29.94 (inHg)
Visibility 6.2 (mile) - 10 (km)
Repülőtér
Airport-code LHBP

Location: Budapest Liszt Ferenc International Airport
Távolság: 14 (km)

Metar:
LHBP 210030Z AUTO 19010KT 9999 OVC044/// 06/01 Q1014

Idő: 2021-01-21 01:30 CET